createdAt,value
2023-02-11T00:01:45.802Z,102024.59
2023-02-11T00:04:16.031Z,102021.03
2023-02-11T00:06:45.365Z,102012.47
2023-02-11T00:09:11.981Z,102014.09
2023-02-11T00:11:40.797Z,102011.22
2023-02-11T00:14:13.233Z,102019.53
2023-02-11T00:16:42.236Z,102004.09
2023-02-11T00:19:09.936Z,102002.63
2023-02-11T00:21:36.812Z,101995.78
2023-02-11T00:24:03.797Z,101994.66
2023-02-11T00:26:33.142Z,101997.31
2023-02-11T00:29:02.637Z,101998.97
2023-02-11T00:31:32.614Z,102002.38
2023-02-11T00:33:59.404Z,101998.22
2023-02-11T00:36:29.011Z,101998.47
2023-02-11T00:38:56.795Z,101990.91
2023-02-11T00:41:23.947Z,101987.22
2023-02-11T00:43:54.049Z,101989.91
2023-02-11T00:46:21.693Z,101993.16
2023-02-11T00:48:48.723Z,101994.34
2023-02-11T00:51:15.399Z,101996.00
2023-02-11T00:53:44.619Z,101994.97
2023-02-11T00:56:13.587Z,101985.19
2023-02-11T00:58:42.856Z,101987.25
2023-02-11T01:01:12.775Z,101976.00
2023-02-11T01:03:44.171Z,101971.09
2023-02-11T01:06:11.370Z,101972.72
2023-02-11T01:08:38.768Z,101961.59
2023-02-11T01:11:14.773Z,101956.09
2023-02-11T01:13:42.278Z,101955.63
2023-02-11T01:16:10.913Z,101945.09
2023-02-11T01:18:41.923Z,101948.06
2023-02-11T01:21:08.548Z,101944.25
2023-02-11T01:23:35.166Z,101940.50
2023-02-11T01:26:05.004Z,101937.34
2023-02-11T01:28:34.715Z,101935.88
2023-02-11T01:31:03.183Z,101931.09
2023-02-11T01:33:32.446Z,101931.31
2023-02-11T01:36:08.840Z,101929.03
2023-02-11T01:38:35.845Z,101930.50
2023-02-11T01:41:09.240Z,101926.34
2023-02-11T01:43:40.792Z,101929.66
2023-02-11T01:46:14.469Z,101927.84
2023-02-11T01:48:45.936Z,101922.00
2023-02-11T01:51:21.139Z,101922.22
2023-02-11T01:54:08.518Z,101917.31
2023-02-11T01:56:57.197Z,101916.69
2023-02-11T01:59:53.122Z,101922.31
2023-02-11T02:02:24.020Z,101916.72
2023-02-11T02:04:57.558Z,101917.25
2023-02-11T02:07:44.195Z,101915.22
2023-02-11T02:10:19.603Z,101917.31
2023-02-11T02:12:46.490Z,101912.69
2023-02-11T02:15:25.802Z,101904.94
2023-02-11T02:18:01.372Z,101913.84
2023-02-11T02:20:27.889Z,101910.09
2023-02-11T02:23:03.426Z,101916.72
2023-02-11T02:25:52.350Z,101926.38
2023-02-11T02:28:21.982Z,101928.16
2023-02-11T02:31:07.484Z,101921.53
2023-02-11T02:33:38.438Z,101915.91
2023-02-11T02:36:09.162Z,101914.91
2023-02-11T02:38:40.994Z,101902.03
2023-02-11T02:41:35.003Z,101907.72
2023-02-11T02:44:01.984Z,101912.78
2023-02-11T02:46:32.840Z,101912.94
2023-02-11T02:49:00.318Z,101904.19
2023-02-11T02:51:57.803Z,101908.00
2023-02-11T02:55:06.330Z,101912.66
2023-02-11T02:57:51.881Z,101906.88
2023-02-11T03:00:46.588Z,101895.59
2023-02-11T03:03:16.126Z,101903.44
2023-02-11T03:06:01.433Z,101892.59
2023-02-11T03:08:36.789Z,101901.78
2023-02-11T03:11:05.533Z,101891.72
2023-02-11T03:13:35.259Z,101897.66
2023-02-11T03:16:09.097Z,101889.97
2023-02-11T03:18:37.387Z,101895.34
2023-02-11T03:21:08.312Z,101883.16
2023-02-11T03:23:49.988Z,101887.59
2023-02-11T03:26:36.339Z,101884.03
2023-02-11T03:29:20.973Z,101879.34
2023-02-11T03:31:54.713Z,101879.88
2023-02-11T03:34:44.956Z,101876.06
2023-02-11T03:37:21.398Z,101880.50
2023-02-11T03:39:57.142Z,101873.81
2023-02-11T03:42:26.562Z,101865.97
2023-02-11T03:44:59.897Z,101855.91
2023-02-11T03:47:29.841Z,101861.22
2023-02-11T03:49:59.395Z,101849.66
2023-02-11T03:52:32.286Z,101845.50
2023-02-11T03:55:02.012Z,101841.06
2023-02-11T03:57:28.859Z,101834.88
2023-02-11T03:59:57.427Z,101827.13
2023-02-11T04:02:29.409Z,101826.81
2023-02-11T04:04:56.315Z,101828.59
2023-02-11T04:07:25.755Z,101823.16
2023-02-11T04:09:58.070Z,101825.06
2023-02-11T04:12:24.966Z,101813.66
2023-02-11T04:14:51.661Z,101811.28
2023-02-11T04:17:18.572Z,101810.38
2023-02-11T04:19:47.396Z,101799.41
2023-02-11T04:22:14.226Z,101799.28
2023-02-11T04:24:40.820Z,101804.94
2023-02-11T04:27:07.623Z,101799.00
2023-02-11T04:29:34.350Z,101798.13
2023-02-11T04:32:01.069Z,101811.13
2023-02-11T04:34:30.508Z,101800.78
2023-02-11T04:36:59.913Z,101805.53
2023-02-11T04:39:31.375Z,101807.09
2023-02-11T04:42:00.485Z,101801.38
2023-02-11T04:44:29.364Z,101806.06
2023-02-11T04:46:58.707Z,101808.84
2023-02-11T04:49:25.725Z,101809.31
2023-02-11T04:51:52.347Z,101806.97
2023-02-11T04:54:19.166Z,101798.28
2023-02-11T04:56:46.008Z,101809.50
2023-02-11T04:59:13.507Z,101805.03
2023-02-11T05:01:41.064Z,101804.84
2023-02-11T05:04:07.914Z,101798.38
2023-02-11T05:06:36.959Z,101808.91
2023-02-11T05:09:03.696Z,101813.69
2023-02-11T05:11:30.453Z,101814.75
2023-02-11T05:13:57.104Z,101813.31
2023-02-11T05:16:28.614Z,101814.41
2023-02-11T05:18:58.463Z,101808.69
2023-02-11T05:21:25.174Z,101811.66
2023-02-11T05:23:54.978Z,101811.41
2023-02-11T05:26:23.957Z,101806.66
2023-02-11T05:28:52.841Z,101808.16
2023-02-11T05:31:19.679Z,101814.63
2023-02-11T05:33:53.670Z,101799.78
2023-02-11T05:36:24.089Z,101792.16
2023-02-11T05:38:51.004Z,101788.44
2023-02-11T05:41:17.589Z,101788.59
2023-02-11T05:43:47.782Z,101801.03
2023-02-11T05:46:14.443Z,101798.38
2023-02-11T05:48:41.032Z,101792.41
2023-02-11T05:51:07.580Z,101798.34
2023-02-11T05:53:34.506Z,101793.22
2023-02-11T05:56:01.447Z,101795.53
2023-02-11T05:58:28.294Z,101791.78
2023-02-11T06:00:54.875Z,101785.00
2023-02-11T06:03:21.572Z,101792.41
2023-02-11T06:05:48.486Z,101796.69
2023-02-11T06:08:15.276Z,101805.50
2023-02-11T06:10:47.022Z,101798.81
2023-02-11T06:13:18.649Z,101803.13
2023-02-11T06:15:47.882Z,101810.38
2023-02-11T06:18:14.569Z,101798.03
2023-02-11T06:20:46.063Z,101803.41
2023-02-11T06:23:14.956Z,101801.38
2023-02-11T06:25:43.848Z,101787.72
2023-02-11T06:28:10.837Z,101785.06
2023-02-11T06:30:38.326Z,101786.41
2023-02-11T06:33:05.662Z,101785.94
2023-02-11T06:35:33.508Z,101782.47
2023-02-11T06:38:00.216Z,101784.00
2023-02-11T06:40:27.004Z,101792.19
2023-02-11T06:42:53.818Z,101789.22
2023-02-11T06:45:22.809Z,101786.84
2023-02-11T06:47:56.824Z,101781.50
2023-02-11T06:50:25.767Z,101775.88
2023-02-11T06:52:54.585Z,101778.84
2023-02-11T06:55:21.182Z,101776.88
2023-02-11T06:57:50.150Z,101772.84
2023-02-11T07:00:17.251Z,101767.13
2023-02-11T07:02:46.169Z,101779.38
2023-02-11T07:05:15.061Z,101769.59
2023-02-11T07:07:41.661Z,101778.47
2023-02-11T07:10:08.520Z,101764.34
2023-02-11T07:12:37.713Z,101773.72
2023-02-11T07:15:06.027Z,101772.50
2023-02-11T07:17:35.169Z,101773.34
2023-02-11T07:20:01.976Z,101767.31
2023-02-11T07:22:30.858Z,101766.16
2023-02-11T07:24:57.455Z,101781.03
2023-02-11T07:27:24.110Z,101765.00
2023-02-11T07:29:50.700Z,101776.16
2023-02-11T07:32:17.458Z,101774.63
2023-02-11T07:34:49.638Z,101769.81
2023-02-11T07:37:18.664Z,101760.56
2023-02-11T07:39:45.321Z,101758.78
2023-02-11T07:42:11.982Z,101760.25
2023-02-11T07:44:43.406Z,101751.06
2023-02-11T07:47:10.166Z,101748.38
2023-02-11T07:49:39.027Z,101743.84
2023-02-11T07:52:05.631Z,101736.03
2023-02-11T07:54:34.702Z,101735.38
2023-02-11T07:57:03.489Z,101737.66
2023-02-11T07:59:30.182Z,101733.25
2023-02-11T08:01:56.753Z,101738.41
2023-02-11T08:04:26.415Z,101730.94
2023-02-11T08:06:58.989Z,101740.94
2023-02-11T08:09:26.189Z,101739.28
2023-02-11T08:11:52.852Z,101743.44
2023-02-11T08:14:21.666Z,101735.06
2023-02-11T08:16:53.091Z,101736.44
2023-02-11T08:19:22.268Z,101741.13
2023-02-11T08:21:48.885Z,101741.22
2023-02-11T08:24:15.784Z,101738.03
2023-02-11T08:26:42.890Z,101729.72
2023-02-11T08:29:14.309Z,101729.97
2023-02-11T08:31:43.860Z,101738.25
2023-02-11T08:34:11.773Z,101734.72
2023-02-11T08:36:40.551Z,101729.53
2023-02-11T08:39:21.128Z,101730.44
2023-02-11T08:41:52.861Z,101743.38
2023-02-11T08:44:25.496Z,101738.47
2023-02-11T08:46:54.683Z,101736.22
2023-02-11T08:49:25.905Z,101730.44
2023-02-11T08:51:56.260Z,101723.06
2023-02-11T08:54:22.894Z,101728.88
2023-02-11T08:56:54.184Z,101734.28
2023-02-11T08:59:20.827Z,101735.28
2023-02-11T09:01:47.816Z,101733.50
2023-02-11T09:04:14.531Z,101734.28
2023-02-11T09:06:41.205Z,101745.66
2023-02-11T09:09:13.702Z,101726.91
2023-02-11T09:11:41.613Z,101720.72
2023-02-11T09:14:08.206Z,101712.66
2023-02-11T09:16:36.275Z,101713.88
2023-02-11T09:19:05.029Z,101721.31
2023-02-11T09:21:32.195Z,101716.03
2023-02-11T09:23:58.926Z,101705.41
2023-02-11T09:26:31.155Z,101706.81
2023-02-11T09:29:00.796Z,101704.22
2023-02-11T09:31:29.723Z,101704.53
2023-02-11T09:34:00.521Z,101703.44
2023-02-11T09:36:32.401Z,101698.34
2023-02-11T09:39:03.474Z,101700.22
2023-02-11T09:41:55.647Z,101699.03
2023-02-11T09:44:28.781Z,101699.50
2023-02-11T09:47:05.160Z,101683.34
2023-02-11T09:49:41.052Z,101686.25
2023-02-11T09:52:13.686Z,101690.00
2023-02-11T09:54:55.678Z,101692.66
2023-02-11T09:57:29.155Z,101682.69
2023-02-11T10:00:01.728Z,101676.03
2023-02-11T10:02:32.450Z,101674.19
2023-02-11T10:05:17.058Z,101675.81
2023-02-11T10:07:57.067Z,101677.56
2023-02-11T10:10:42.020Z,101675.88
2023-02-11T10:13:20.724Z,101665.13
2023-02-11T10:16:16.692Z,101665.06
2023-02-11T10:19:39.405Z,101671.19
2023-02-11T10:22:25.461Z,101672.03
2023-02-11T10:25:00.284Z,101661.69
2023-02-11T10:27:36.011Z,101655.19
2023-02-11T10:30:23.675Z,101650.16
2023-02-11T10:33:19.086Z,101643.09
2023-02-11T10:35:45.775Z,101644.44
2023-02-11T10:38:12.803Z,101642.69
2023-02-11T10:40:42.106Z,101632.84
2023-02-11T10:43:16.254Z,101629.41
2023-02-11T10:45:48.647Z,101630.00
2023-02-11T10:48:43.460Z,101628.38
2023-02-11T10:51:14.569Z,101624.06
2023-02-11T10:53:44.744Z,101617.41
2023-02-11T10:56:28.001Z,101616.19
2023-02-11T10:59:07.377Z,101616.38
2023-02-11T11:01:50.859Z,101610.78
2023-02-11T11:04:32.214Z,101603.81
2023-02-11T11:07:24.984Z,101602.75
2023-02-11T11:09:59.686Z,101590.97
2023-02-11T11:12:30.178Z,101587.00
2023-02-11T11:15:21.830Z,101585.03
2023-02-11T11:18:21.230Z,101577.06
2023-02-11T11:21:09.975Z,101581.91
2023-02-11T11:23:37.843Z,101575.44
2023-02-11T11:26:11.719Z,101570.53
2023-02-11T11:29:01.365Z,101570.53
2023-02-11T11:31:31.059Z,101560.22
2023-02-11T11:34:05.064Z,101568.66
2023-02-11T11:36:41.021Z,101561.56
2023-02-11T11:39:30.190Z,101543.19
2023-02-11T11:42:03.378Z,101542.78
2023-02-11T11:44:36.252Z,101529.50
2023-02-11T11:47:23.122Z,101519.63
2023-02-11T11:49:52.899Z,101527.00
2023-02-11T11:52:39.747Z,101531.25
2023-02-11T11:55:09.546Z,101522.19
2023-02-11T11:57:40.007Z,101519.63
2023-02-11T12:00:19.080Z,101515.59
2023-02-11T12:03:09.141Z,101514.00
2023-02-11T12:05:37.561Z,101512.91
2023-02-11T12:08:21.619Z,101506.41
2023-02-11T12:11:03.390Z,101499.97
2023-02-11T12:14:00.979Z,101484.50
2023-02-11T12:16:53.664Z,101468.72
2023-02-11T12:19:28.749Z,101466.41
2023-02-11T12:22:30.618Z,101452.53
2023-02-11T12:25:06.510Z,101445.88
2023-02-11T12:28:00.653Z,101442.38
2023-02-11T12:30:55.474Z,101433.75
2023-02-11T12:34:01.820Z,101437.81
2023-02-11T12:36:37.534Z,101442.16
2023-02-11T12:39:16.186Z,101425.97
2023-02-11T12:42:26.742Z,101434.00
2023-02-11T12:45:21.121Z,101436.72
2023-02-11T12:48:09.311Z,101428.41
2023-02-11T12:50:55.419Z,101425.59
2023-02-11T12:53:40.197Z,101423.22
2023-02-11T12:56:27.156Z,101408.03
2023-02-11T12:59:01.672Z,101408.66
2023-02-11T13:01:37.013Z,101397.16
2023-02-11T13:04:15.168Z,101394.03
2023-02-11T13:06:51.061Z,101412.91
2023-02-11T13:09:30.861Z,101421.34
2023-02-11T13:12:20.931Z,101403.72
2023-02-11T13:14:54.860Z,101404.13
2023-02-11T13:17:34.289Z,101395.16
2023-02-11T13:20:10.154Z,101400.94
2023-02-11T13:23:00.211Z,101384.47
2023-02-11T13:25:57.995Z,101378.00
2023-02-11T13:28:32.437Z,101384.47
2023-02-11T13:31:03.554Z,101379.44
2023-02-11T13:33:43.525Z,101375.69
2023-02-11T13:36:14.943Z,101370.25
2023-02-11T13:38:54.375Z,101374.09
2023-02-11T13:41:26.475Z,101368.03
2023-02-11T13:44:11.128Z,101373.69
2023-02-11T13:46:54.278Z,101369.59
2023-02-11T13:49:42.584Z,101372.66
2023-02-11T13:52:30.839Z,101372.16
2023-02-11T13:55:06.449Z,101370.97
2023-02-11T13:57:35.991Z,101370.38
2023-02-11T14:00:28.182Z,101373.13
2023-02-11T14:03:31.775Z,101375.75
2023-02-11T14:06:29.115Z,101376.31
2023-02-11T14:09:11.538Z,101375.50
2023-02-11T14:11:43.432Z,101361.28
2023-02-11T14:14:30.714Z,101356.66
2023-02-11T14:17:01.005Z,101349.84
2023-02-11T14:19:38.776Z,101345.59
2023-02-11T14:22:17.458Z,101353.53
2023-02-11T14:25:05.885Z,101370.25
2023-02-11T14:27:49.080Z,101377.59
2023-02-11T14:30:25.328Z,101382.88
2023-02-11T14:33:00.194Z,101385.84
2023-02-11T14:35:49.983Z,101385.03
2023-02-11T14:38:42.493Z,101382.09
2023-02-11T14:41:30.810Z,101383.56
2023-02-11T14:44:30.330Z,101393.59
2023-02-11T14:46:57.307Z,101382.09
2023-02-11T14:49:35.762Z,101380.16
2023-02-11T14:52:29.888Z,101379.19
2023-02-11T14:55:13.573Z,101378.06
2023-02-11T14:57:42.259Z,101368.97
2023-02-11T15:00:21.708Z,101367.84
2023-02-11T15:02:48.519Z,101357.78
2023-02-11T15:05:17.822Z,101359.06
2023-02-11T15:07:45.819Z,101349.84
2023-02-11T15:10:47.486Z,101348.34
2023-02-11T15:13:21.723Z,101349.78
2023-02-11T15:15:52.341Z,101341.78
2023-02-11T15:18:30.226Z,101344.19
2023-02-11T15:20:57.373Z,101346.66
2023-02-11T15:23:28.560Z,101332.22
2023-02-11T15:25:58.103Z,101336.97
2023-02-11T15:28:33.409Z,101341.66
2023-02-11T15:31:07.066Z,101335.63
2023-02-11T15:33:35.996Z,101336.34
2023-02-11T15:36:03.455Z,101338.09
2023-02-11T15:38:34.963Z,101330.53
2023-02-11T15:41:03.750Z,101325.63
2023-02-11T15:43:44.373Z,101321.97
2023-02-11T15:46:18.543Z,101312.66
2023-02-11T15:48:51.664Z,101319.06
2023-02-11T15:51:32.919Z,101312.75
2023-02-11T15:54:02.670Z,101306.59
2023-02-11T15:56:33.047Z,101315.84
2023-02-11T15:59:09.161Z,101317.94
2023-02-11T16:01:37.547Z,101307.38
2023-02-11T16:04:07.080Z,101308.22
2023-02-11T16:06:47.803Z,101309.13
2023-02-11T16:09:14.510Z,101308.47
2023-02-11T16:11:49.397Z,101303.69
2023-02-11T16:14:29.456Z,101292.28
2023-02-11T16:17:18.795Z,101295.13
2023-02-11T16:19:49.026Z,101303.50
2023-02-11T16:22:19.245Z,101287.81
2023-02-11T16:24:48.459Z,101287.38
2023-02-11T16:27:35.460Z,101282.44
2023-02-11T16:30:05.700Z,101282.94
2023-02-11T16:32:32.431Z,101276.38
2023-02-11T16:35:03.229Z,101276.66
2023-02-11T16:37:32.703Z,101292.13
2023-02-11T16:40:01.709Z,101292.13
2023-02-11T16:42:31.027Z,101302.78
2023-02-11T16:45:02.790Z,101300.94
2023-02-11T16:47:40.899Z,101300.78
2023-02-11T16:50:19.162Z,101297.78
2023-02-11T16:52:49.167Z,101289.84
2023-02-11T16:55:18.807Z,101286.19
2023-02-11T16:57:50.823Z,101271.91
2023-02-11T17:00:17.987Z,101267.34
2023-02-11T17:02:45.017Z,101274.81
2023-02-11T17:05:19.459Z,101278.81
2023-02-11T17:07:46.944Z,101279.25
2023-02-11T17:10:24.454Z,101300.91
2023-02-11T17:12:51.536Z,101292.25
2023-02-11T17:15:18.378Z,101290.31
2023-02-11T17:17:46.235Z,101286.25
2023-02-11T17:20:14.332Z,101293.66
2023-02-11T17:22:43.763Z,101285.94
2023-02-11T17:25:10.668Z,101291.88
2023-02-11T17:27:37.340Z,101283.81
2023-02-11T17:30:05.342Z,101288.06
2023-02-11T17:32:31.973Z,101291.94
2023-02-11T17:34:58.705Z,101296.34
2023-02-11T17:37:28.054Z,101301.41
2023-02-11T17:39:54.609Z,101313.25
2023-02-11T17:42:23.884Z,101321.38
2023-02-11T17:44:52.846Z,101312.53
2023-02-11T17:47:19.432Z,101309.94
2023-02-11T17:49:45.990Z,101302.81
2023-02-11T17:52:15.003Z,101303.72
2023-02-11T17:54:43.936Z,101302.13
2023-02-11T17:57:12.762Z,101300.78
2023-02-11T18:06:05.705Z,101283.53
2023-02-11T18:08:35.585Z,101271.56
2023-02-11T18:11:02.609Z,101265.13
2023-02-11T18:13:32.048Z,101263.38
2023-02-11T18:19:41.450Z,101264.72
2023-02-11T18:22:11.927Z,101267.59
2023-02-11T18:24:45.808Z,101266.69
2023-02-11T18:31:01.016Z,101258.13
2023-02-11T18:33:29.904Z,101258.53
2023-02-11T18:39:51.984Z,101259.00
2023-02-11T18:42:18.579Z,101261.69
2023-02-11T18:48:32.604Z,101269.50
2023-02-11T18:51:01.735Z,101269.88
2023-02-11T18:53:30.726Z,101263.44
2023-02-11T18:55:57.353Z,101259.72
2023-02-11T18:58:24.086Z,101262.13
2023-02-11T19:00:55.561Z,101255.88
2023-02-11T19:03:24.594Z,101265.88
2023-02-11T19:05:56.597Z,101269.88
2023-02-11T19:08:23.284Z,101273.41
2023-02-11T19:10:50.128Z,101283.34
2023-02-11T19:13:16.810Z,101277.06
2023-02-11T19:15:49.151Z,101265.50
2023-02-11T19:18:19.200Z,101268.34
2023-02-11T19:20:48.341Z,101266.09
2023-02-11T19:23:17.239Z,101278.41
2023-02-11T19:26:06.502Z,101281.59
2023-02-11T19:28:42.346Z,101285.72
2023-02-11T19:31:11.629Z,101276.28
2023-02-11T19:33:38.552Z,101280.31
2023-02-11T19:36:09.754Z,101283.47
2023-02-11T19:38:36.512Z,101278.41
2023-02-11T19:41:03.278Z,101269.97
2023-02-11T19:43:30.297Z,101276.81
2023-02-11T19:46:03.484Z,101277.69
2023-02-11T19:48:32.929Z,101269.63
2023-02-11T19:51:12.109Z,101272.16
2023-02-11T19:53:42.453Z,101278.44
2023-02-11T19:56:09.938Z,101282.44
2023-02-11T19:58:39.983Z,101276.66
2023-02-11T20:01:06.832Z,101281.47
2023-02-11T20:03:36.805Z,101266.59
2023-02-11T20:06:17.260Z,101267.84
2023-02-11T20:08:47.138Z,101260.28
2023-02-11T20:11:16.295Z,101266.38
2023-02-11T20:13:52.504Z,101274.91
2023-02-11T20:16:27.055Z,101265.28
2023-02-11T20:19:01.164Z,101258.81
2023-02-11T20:21:31.028Z,101265.03
2023-02-11T20:24:03.168Z,101266.25
2023-02-11T20:26:34.894Z,101259.53
2023-02-11T20:29:02.592Z,101264.16
2023-02-11T20:31:32.191Z,101273.53
2023-02-11T20:34:02.311Z,101266.31
2023-02-11T20:36:32.153Z,101265.38
2023-02-11T20:39:00.192Z,101253.28
2023-02-11T20:41:32.496Z,101247.69
2023-02-11T20:44:01.297Z,101232.03
2023-02-11T20:46:33.068Z,101215.75
2023-02-11T20:49:03.904Z,101205.63
2023-02-11T20:51:36.888Z,101191.19
2023-02-11T20:54:04.109Z,101200.00
2023-02-11T20:56:36.102Z,101189.06
2023-02-11T20:59:04.326Z,101198.91
2023-02-11T21:01:40.301Z,101203.34
2023-02-11T21:04:11.682Z,101214.78
2023-02-11T21:06:42.037Z,101204.28
2023-02-11T21:09:13.380Z,101211.50
2023-02-11T21:11:43.168Z,101206.91
2023-02-11T21:14:13.344Z,101203.50
2023-02-11T21:16:41.394Z,101203.50
2023-02-11T21:19:08.065Z,101205.59
2023-02-11T21:21:38.932Z,101206.91
2023-02-11T21:24:07.168Z,101204.72
2023-02-11T21:26:37.284Z,101192.06
2023-02-11T21:29:09.669Z,101210.72
2023-02-11T21:31:37.228Z,101200.72
2023-02-11T21:34:04.414Z,101210.53
2023-02-11T21:36:31.155Z,101198.38
2023-02-11T21:39:01.754Z,101194.16
2023-02-11T21:41:28.553Z,101197.50
2023-02-11T21:43:55.150Z,101185.88
2023-02-11T21:46:22.463Z,101193.66
2023-02-11T21:48:49.536Z,101191.19
2023-02-11T21:51:22.510Z,101186.28
2023-02-11T21:53:56.039Z,101187.16
2023-02-11T21:56:23.065Z,101188.19
2023-02-11T21:58:59.134Z,101189.63
2023-02-11T22:01:28.962Z,101191.19
2023-02-11T22:03:55.978Z,101191.91
2023-02-11T22:06:31.156Z,101182.94
2023-02-11T22:09:18.922Z,101173.81
2023-02-11T22:11:49.288Z,101187.69
2023-02-11T22:14:16.351Z,101193.50
2023-02-11T22:16:45.259Z,101205.28
2023-02-11T22:19:12.268Z,101198.75
2023-02-11T22:21:38.906Z,101196.47
2023-02-11T22:24:08.482Z,101209.94
2023-02-11T22:26:35.189Z,101213.34
2023-02-11T22:29:02.045Z,101214.94
2023-02-11T22:31:32.127Z,101230.75
2023-02-11T22:34:02.277Z,101209.84
2023-02-11T22:36:34.906Z,101212.66
2023-02-11T22:39:03.853Z,101223.72
2023-02-11T22:41:30.591Z,101226.72
2023-02-11T22:43:57.211Z,101234.69
2023-02-11T22:46:27.716Z,101233.22
2023-02-11T22:48:55.043Z,101227.94
2023-02-11T22:51:24.606Z,101220.38
2023-02-11T22:53:56.440Z,101217.28
2023-02-11T22:56:23.615Z,101221.97
2023-02-11T22:58:50.977Z,101223.72
2023-02-11T23:01:18.366Z,101209.47
2023-02-11T23:03:45.270Z,101202.00
2023-02-11T23:06:12.047Z,101207.63
2023-02-11T23:08:43.046Z,101208.78
2023-02-11T23:11:19.717Z,101225.28
2023-02-11T23:13:50.681Z,101221.31
2023-02-11T23:16:21.078Z,101236.19
2023-02-11T23:18:51.408Z,101238.81
2023-02-11T23:21:29.289Z,101241.97
2023-02-11T23:24:01.575Z,101249.59
2023-02-11T23:26:28.708Z,101234.25
2023-02-11T23:28:58.723Z,101234.25
2023-02-11T23:31:39.741Z,101236.19
2023-02-11T23:34:07.738Z,101250.53
2023-02-11T23:36:34.617Z,101234.59
2023-02-11T23:39:03.411Z,101236.19
2023-02-11T23:41:29.992Z,101253.06
2023-02-11T23:44:00.185Z,101236.56
2023-02-11T23:46:30.059Z,101237.25
2023-02-11T23:48:56.778Z,101228.28
2023-02-11T23:51:26.281Z,101226.00
2023-02-11T23:53:56.062Z,101228.28
2023-02-11T23:56:29.402Z,101224.41
2023-02-11T23:58:58.304Z,101235.81
